Time;durP1;ratioP1;P1;durP2;ratioP2;P2;SDS_P1;SDS_P2;PMS_P1;PMS_P2;Temp;Humidity;BMP_temperature;BMP_pressure;BME280_temperature;BME280_humidity;BME280_pressure;Samples;Min_cycle;Max_cycle;Signal;HPM_P1;HPM_P2
2024/04/15 00:00:33;;;;;;;4.57;2.90;;;19.10;96.70;;;;;;5411256;26;20018;-74
2024/04/15 00:03:04;;;;;;;4.88;3.17;;;19.00;96.70;;;;;;5420276;26;20000;-73
2024/04/15 00:05:33;;;;;;;4.68;3.08;;;18.90;96.70;;;;;;5401842;26;20001;-74
2024/04/15 00:08:02;;;;;;;5.70;3.15;;;18.90;96.70;;;;;;5435997;26;20019;-73
2024/04/15 00:10:31;;;;;;;3.92;2.92;;;18.80;96.70;;;;;;5394772;26;20010;-74
2024/04/15 00:13:03;;;;;;;4.75;3.00;;;18.70;96.70;;;;;;5381071;26;19995;-73
2024/04/15 00:15:37;;;;;;;2.92;2.63;;;18.70;96.70;;;;;;5386206;26;20356;-74
2024/04/15 00:18:06;;;;;;;4.45;3.03;;;18.60;96.70;;;;;;5377185;26;19996;-73
2024/04/15 00:20:36;;;;;;;5.10;3.15;;;18.60;96.70;;;;;;5379164;26;20031;-74
2024/04/15 00:23:08;;;;;;;3.90;2.72;;;18.60;96.70;;;;;;5384996;26;20331;-73
2024/04/15 00:25:42;;;;;;;4.95;2.67;;;18.50;96.70;;;;;;5438828;26;20655;-73
2024/04/15 00:28:15;;;;;;;;;;;18.50;96.70;;;;;;5380006;26;20007;-72
2024/04/15 00:30:46;;;;;;;4.47;2.78;;;18.50;96.70;;;;;;5411940;26;20336;-74
2024/04/15 00:33:15;;;;;;;6.93;3.25;;;18.50;96.70;;;;;;5412038;26;20081;-73
2024/04/15 00:35:44;;;;;;;3.70;2.60;;;18.50;96.70;;;;;;5387848;26;20007;-73
2024/04/15 00:38:14;;;;;;;3.90;2.80;;;18.60;96.70;;;;;;5413389;26;20011;-74
2024/04/15 00:40:44;;;;;;;5.35;3.00;;;18.50;96.70;;;;;;5385982;26;20032;-74
2024/04/15 00:43:16;;;;;;;6.10;3.22;;;18.50;96.70;;;;;;5406893;26;20003;-73
2024/04/15 00:45:45;;;;;;;5.70;3.17;;;18.60;96.70;;;;;;5407246;26;20015;-74
2024/04/15 00:48:18;;;;;;;4.07;3.30;;;18.60;96.70;;;;;;5387595;26;20013;-73
2024/04/15 00:50:51;;;;;;;6.03;3.40;;;18.40;96.70;;;;;;5392331;26;20000;-74
2024/04/15 00:53:22;;;;;;;5.72;2.80;;;18.30;96.70;;;;;;5395915;26;19999;-74
2024/04/15 00:55:53;;;;;;;4.93;2.72;;;18.30;96.70;;;;;;5380810;26;20007;-72
2024/04/15 00:58:25;;;;;;;4.75;3.03;;;18.20;96.70;;;;;;5411834;26;20011;-73
2024/04/15 01:00:56;;;;;;;5.20;3.15;;;18.10;96.70;;;;;;5410252;26;20015;-73
2024/04/15 01:03:27;;;;;;;4.50;2.90;;;18.20;96.70;;;;;;5408296;26;19999;-73
2024/04/15 01:06:14;;;;;;;5.50;3.38;;;18.20;96.70;;;;;;5384960;26;20003;-76
2024/04/15 01:08:46;;;;;;;4.38;2.88;;;18.00;96.70;;;;;;5410084;26;20047;-75
2024/04/15 01:11:17;;;;;;;3.15;2.50;;;17.90;96.70;;;;;;5377748;26;20014;-75
2024/04/15 01:13:49;;;;;;;3.50;2.50;;;18.00;96.70;;;;;;5387618;26;20003;-75
2024/04/15 01:16:18;;;;;;;4.03;2.58;;;17.90;96.70;;;;;;5385556;26;20162;-75
2024/04/15 01:18:50;;;;;;;6.07;3.03;;;17.80;96.70;;;;;;5416417;26;20003;-72
2024/04/15 01:21:19;;;;;;;4.18;2.78;;;17.90;96.70;;;;;;5412398;26;19999;-73
2024/04/15 01:23:51;;;;;;;4.88;3.25;;;17.80;96.70;;;;;;5418486;26;20031;-73
2024/04/15 01:26:21;;;;;;;5.05;2.80;;;17.70;96.70;;;;;;5387803;26;19995;-72
2024/04/15 01:28:49;;;;;;;3.50;3.03;;;17.80;96.70;;;;;;5406425;26;20000;-73
2024/04/15 01:31:18;;;;;;;4.93;2.75;;;17.90;96.70;;;;;;5410807;26;20531;-73
2024/04/15 01:33:47;;;;;;;5.18;3.22;;;17.80;96.70;;;;;;5412839;26;20017;-73
2024/04/15 01:36:17;;;;;;;4.00;3.13;;;17.80;96.70;;;;;;5408611;26;20449;-72
2024/04/15 01:38:54;;;;;;;3.10;2.80;;;17.80;96.70;;;;;;5387737;26;20049;-74
2024/04/15 01:41:23;;;;;;;5.30;3.22;;;17.70;96.70;;;;;;5377547;26;20000;-72
2024/04/15 01:43:52;;;;;;;5.38;2.60;;;17.70;96.70;;;;;;5434061;26;20027;-73
2024/04/15 01:46:21;;;;;;;7.75;4.05;;;17.60;96.70;;;;;;5409430;26;19996;-74
2024/04/15 01:48:50;;;;;;;4.22;2.88;;;17.60;96.70;;;;;;5381453;26;19999;-75
2024/04/15 01:51:19;;;;;;;5.55;2.83;;;17.60;96.70;;;;;;5403408;26;20019;-75
2024/04/15 01:53:49;;;;;;;4.22;2.85;;;17.50;96.70;;;;;;5428143;26;19999;-75
2024/04/15 01:56:20;;;;;;;6.20;2.92;;;17.60;96.70;;;;;;5377566;26;20012;-75
2024/04/15 01:58:49;;;;;;;3.15;2.50;;;17.50;96.70;;;;;;5374737;26;20015;-74
2024/04/15 02:01:19;;;;;;;5.63;2.83;;;17.40;96.70;;;;;;5405204;26;20011;-75
2024/04/15 02:03:49;;;;;;;5.25;3.03;;;17.20;96.70;;;;;;5406915;26;19999;-74
2024/04/15 02:06:18;;;;;;;6.53;3.00;;;17.50;96.70;;;;;;5386157;26;20000;-74
2024/04/15 02:08:48;;;;;;;6.75;2.90;;;17.50;96.70;;;;;;5377533;26;20010;-75
2024/04/15 02:11:22;;;;;;;4.78;3.00;;;17.40;96.70;;;;;;5370506;26;20000;-75
2024/04/15 02:13:53;;;;;;;5.20;3.13;;;17.40;96.70;;;;;;5420064;26;20042;-74
2024/04/15 02:16:22;;;;;;;5.47;2.85;;;17.30;96.70;;;;;;5381907;26;20125;-75
2024/04/15 02:18:51;;;;;;;3.13;2.63;;;17.40;96.70;;;;;;5408141;26;20448;-75
2024/04/15 02:21:19;;;;;;;5.18;2.70;;;17.40;96.70;;;;;;5415411;26;19999;-75
2024/04/15 02:23:48;;;;;;;4.78;2.75;;;17.40;96.70;;;;;;5380707;26;19995;-75
2024/04/15 02:26:23;;;;;;;5.82;3.00;;;17.40;96.70;;;;;;5404817;26;20000;-75
2024/04/15 02:28:53;;;;;;;4.65;2.88;;;17.40;96.70;;;;;;5394646;26;20003;-75
2024/04/15 02:31:21;;;;;;;7.68;3.28;;;17.40;96.70;;;;;;5382910;26;20018;-75
2024/04/15 02:33:52;;;;;;;5.82;3.17;;;17.30;96.70;;;;;;5401576;26;20006;-75
2024/04/15 02:36:22;;;;;;;4.35;3.13;;;17.30;96.70;;;;;;5386484;26;20468;-75
2024/04/15 02:38:52;;;;;;;3.53;2.60;;;17.30;96.70;;;;;;5389676;26;20007;-75
2024/04/15 02:41:24;;;;;;;5.32;2.78;;;17.40;96.70;;;;;;5378916;26;20014;-74
2024/04/15 02:43:53;;;;;;;6.10;2.50;;;17.30;96.70;;;;;;5403385;26;20006;-75
2024/04/15 02:46:21;;;;;;;5.07;2.78;;;17.20;96.70;;;;;;5416017;26;20467;-74
2024/04/15 02:48:50;;;;;;;3.92;2.70;;;16.90;96.70;;;;;;5379261;26;20123;-75
2024/04/15 02:51:19;;;;;;;5.13;3.00;;;17.00;96.70;;;;;;5380684;26;19999;-75
2024/04/15 02:53:49;;;;;;;5.05;2.30;;;16.80;96.70;;;;;;5412198;26;20014;-73
2024/04/15 02:56:18;;;;;;;3.83;2.67;;;16.80;96.70;;;;;;5379111;26;20489;-75
2024/04/15 02:58:52;;;;;;;3.53;2.13;;;16.90;96.70;;;;;;5404977;26;20000;-74
2024/04/15 03:01:21;;;;;;;4.32;2.97;;;16.80;96.70;;;;;;5408573;26;20013;-74
2024/04/15 03:03:52;;;;;;;4.47;2.97;;;16.90;96.70;;;;;;5389697;26;20000;-74
2024/04/15 03:06:22;;;;;;;4.63;2.72;;;16.80;96.70;;;;;;5374095;26;19996;-75
2024/04/15 03:08:54;;;;;;;4.72;2.53;;;16.80;96.70;;;;;;5377506;26;19996;-75
2024/04/15 03:11:25;;;;;;;3.70;2.55;;;16.70;96.70;;;;;;5379174;26;20073;-75
2024/04/15 03:13:57;;;;;;;4.97;2.60;;;16.70;96.70;;;;;;5384281;26;20000;-74
2024/04/15 03:16:26;;;;;;;3.50;2.90;;;16.80;96.70;;;;;;5386548;26;20022;-75
2024/04/15 03:18:55;;;;;;;5.30;2.33;;;16.70;96.70;;;;;;5387717;26;20070;-74
2024/04/15 03:21:25;;;;;;;5.45;3.38;;;16.70;96.70;;;;;;5381606;26;20035;-75
2024/04/15 03:23:54;;;;;;;4.47;2.80;;;16.60;96.70;;;;;;5417902;26;20018;-75
2024/04/15 03:26:25;;;;;;;5.20;2.92;;;16.50;96.70;;;;;;5422888;26;20010;-75
2024/04/15 03:28:57;;;;;;;4.93;3.13;;;16.50;96.70;;;;;;5407141;26;20062;-73
2024/04/15 03:31:27;;;;;;;4.10;3.55;;;16.50;96.70;;;;;;5404114;26;20012;-73
2024/04/15 03:33:55;;;;;;;4.25;3.45;;;16.40;96.70;;;;;;5408684;26;20014;-72
2024/04/15 03:36:24;;;;;;;4.63;3.28;;;16.40;96.70;;;;;;5415362;26;19999;-73
2024/04/15 03:38:53;;;;;;;5.78;3.42;;;16.50;96.70;;;;;;5397029;26;19996;-72
2024/04/15 03:41:21;;;;;;;4.32;3.42;;;16.50;96.70;;;;;;5383367;26;20484;-75
2024/04/15 03:43:52;;;;;;;4.70;3.38;;;16.30;96.70;;;;;;5376375;26;20046;-73
2024/04/15 03:46:24;;;;;;;4.88;3.58;;;16.10;96.70;;;;;;5388906;26;20415;-73
2024/04/15 03:48:53;;;;;;;5.15;3.33;;;16.00;96.70;;;;;;5393938;26;20437;-73
2024/04/15 03:51:23;;;;;;;5.85;3.42;;;15.90;96.70;;;;;;5376095;26;19999;-73
2024/04/15 03:53:51;;;;;;;5.00;3.38;;;15.90;96.70;;;;;;5381318;26;20018;-72
2024/04/15 03:56:20;;;;;;;7.18;3.80;;;15.80;96.70;;;;;;5379261;26;19996;-72
2024/04/15 03:58:49;;;;;;;4.32;3.80;;;15.70;96.70;;;;;;5426344;26;20003;-73
2024/04/15 04:01:19;;;;;;;5.63;3.75;;;15.70;96.70;;;;;;5402270;26;20125;-73
2024/04/15 04:03:52;;;;;;;5.50;3.75;;;15.90;96.70;;;;;;5406231;26;19999;-73
2024/04/15 04:06:21;;;;;;;4.60;3.45;;;16.10;96.70;;;;;;5398066;26;20003;-73
2024/04/15 04:08:50;;;;;;;7.35;3.55;;;16.10;96.70;;;;;;5409660;26;19996;-72
2024/04/15 04:11:22;;;;;;;7.80;4.70;;;16.00;96.70;;;;;;5402764;26;20504;-72
2024/04/15 04:13:50;;;;;;;6.20;4.00;;;16.00;96.70;;;;;;5406770;26;20388;-73
2024/04/15 04:16:21;;;;;;;5.50;3.33;;;16.00;96.70;;;;;;5411620;26;19999;-72
2024/04/15 04:18:53;;;;;;;5.13;3.33;;;15.90;96.70;;;;;;5412277;26;20023;-74
2024/04/15 04:21:22;;;;;;;4.68;3.38;;;15.90;96.70;;;;;;5414421;26;20170;-75
2024/04/15 04:23:51;;;;;;;4.40;2.97;;;16.10;96.70;;;;;;5377756;26;20040;-75
2024/04/15 04:26:20;;;;;;;5.00;3.40;;;16.10;96.70;;;;;;5372422;26;20015;-73
2024/04/15 04:28:50;;;;;;;5.22;2.83;;;16.10;96.70;;;;;;5401789;26;20039;-75
2024/04/15 04:31:18;;;;;;;4.90;3.00;;;15.90;96.70;;;;;;5416635;26;20036;-74
2024/04/15 04:33:47;;;;;;;4.20;2.75;;;15.90;96.70;;;;;;5377441;26;20026;-74
2024/04/15 04:36:19;;;;;;;4.15;2.83;;;16.00;96.70;;;;;;5377382;26;20069;-75
2024/04/15 04:38:49;;;;;;;5.82;3.10;;;15.90;96.70;;;;;;5405565;26;20003;-74
2024/04/15 04:41:18;;;;;;;4.05;2.90;;;16.00;96.70;;;;;;5379504;26;20003;-75
2024/04/15 04:43:48;;;;;;;3.92;2.75;;;16.10;96.70;;;;;;5380822;26;19999;-74
2024/04/15 04:46:18;;;;;;;5.75;3.38;;;15.90;96.70;;;;;;5373589;26;20001;-75
2024/04/15 04:48:49;;;;;;;4.90;3.03;;;15.80;96.70;;;;;;5410495;26;19996;-74
2024/04/15 04:51:21;;;;;;;4.75;2.95;;;15.90;96.70;;;;;;5392331;26;20355;-74
2024/04/15 04:53:49;;;;;;;4.43;2.67;;;15.80;96.70;;;;;;5387414;26;20023;-74
2024/04/15 04:56:18;;;;;;;4.43;2.42;;;15.90;96.70;;;;;;5396843;26;19996;-75
2024/04/15 04:58:48;;;;;;;6.75;2.90;;;15.90;96.70;;;;;;5413518;26;20012;-72
2024/04/15 05:01:18;;;;;;;4.28;2.63;;;15.90;96.70;;;;;;5377345;26;20000;-72
2024/04/15 05:03:49;;;;;;;4.55;2.60;;;15.80;96.70;;;;;;5412395;26;20088;-72
2024/04/15 05:06:23;;;;;;;4.50;2.58;;;15.90;96.70;;;;;;5377773;26;20000;-72
2024/04/15 05:08:52;;;;;;;8.00;3.33;;;15.70;96.70;;;;;;5419790;26;20011;-73
2024/04/15 05:11:21;;;;;;;4.93;2.83;;;15.70;96.70;;;;;;5375727;26;19995;-72
2024/04/15 05:13:51;;;;;;;4.63;2.67;;;15.80;96.70;;;;;;5397521;26;20010;-73
2024/04/15 05:16:20;;;;;;;7.60;3.60;;;15.70;96.70;;;;;;5412325;26;19999;-72
2024/04/15 05:18:49;;;;;;;3.88;2.90;;;15.80;96.70;;;;;;5389196;26;20058;-72
2024/04/15 05:21:18;;;;;;;5.05;3.00;;;15.90;96.70;;;;;;5396149;26;20072;-72
2024/04/15 05:23:49;;;;;;;5.22;3.03;;;16.00;96.70;;;;;;5395742;26;20010;-72
2024/04/15 05:26:19;;;;;;;5.78;3.42;;;15.90;96.70;;;;;;5406871;26;20342;-72
2024/04/15 05:28:48;;;;;;;6.65;4.30;;;16.10;96.70;;;;;;5417886;26;20003;-72
2024/04/15 05:31:16;;;;;;;5.72;3.70;;;16.10;96.70;;;;;;5379312;26;20019;-72
2024/04/15 05:33:46;;;;;;;5.90;3.88;;;16.30;96.70;;;;;;5376257;26;20011;-73
2024/04/15 05:36:15;;;;;;;8.50;4.00;;;16.30;96.70;;;;;;5376835;26;19996;-72
2024/04/15 05:38:48;;;;;;;5.22;3.97;;;16.20;96.70;;;;;;5378433;26;20007;-72
2024/04/15 05:41:17;;;;;;;4.60;3.72;;;16.10;96.70;;;;;;5388924;26;19999;-72
2024/04/15 05:43:46;;;;;;;6.72;4.28;;;16.20;96.70;;;;;;5414011;26;20026;-73
2024/04/15 05:46:17;;;;;;;5.38;3.30;;;16.10;96.70;;;;;;5380608;26;20039;-73
2024/04/15 05:48:48;;;;;;;5.47;3.08;;;16.20;96.70;;;;;;5395440;26;20082;-72
2024/04/15 05:51:18;;;;;;;5.15;2.88;;;16.20;96.70;;;;;;5363275;26;20072;-72
2024/04/15 05:53:51;;;;;;;6.68;3.17;;;16.20;96.70;;;;;;5388729;26;20448;-72
2024/04/15 05:56:21;;;;;;;4.65;2.97;;;16.30;96.70;;;;;;5377648;26;20585;-73
2024/04/15 05:58:50;;;;;;;6.50;3.50;;;16.50;96.70;;;;;;5408404;26;20044;-71
2024/04/15 06:01:21;;;;;;;6.30;3.50;;;16.40;96.70;;;;;;5396557;26;20007;-71
2024/04/15 06:03:50;;;;;;;7.38;3.60;;;16.30;96.70;;;;;;5414996;26;20000;-72
2024/04/15 06:06:19;;;;;;;5.75;3.45;;;16.50;96.70;;;;;;5390204;26;20004;-72
2024/04/15 06:08:51;;;;;;;6.75;3.70;;;16.50;96.70;;;;;;5373755;26;20004;-72
2024/04/15 06:11:21;;;;;;;5.60;3.45;;;16.60;96.70;;;;;;5398361;26;20449;-73
2024/04/15 06:13:52;;;;;;;6.15;3.40;;;16.60;96.70;;;;;;5379212;26;20007;-73
2024/04/15 06:16:21;;;;;;;6.07;3.90;;;16.40;96.70;;;;;;5400147;26;20145;-72
2024/04/15 06:18:51;;;;;;;6.70;4.05;;;16.60;96.70;;;;;;5404787;26;20669;-72
2024/04/15 06:21:20;;;;;;;8.32;3.58;;;16.80;96.70;;;;;;5414756;26;19999;-73
2024/04/15 06:23:51;;;;;;;7.68;4.20;;;16.90;96.70;;;;;;5386476;26;20010;-73
2024/04/15 06:26:20;;;;;;;4.40;3.60;;;16.80;96.70;;;;;;5401756;26;19999;-73
2024/04/15 06:28:49;;;;;;;6.22;4.10;;;16.80;96.70;;;;;;5386844;26;20003;-72
2024/04/15 06:31:19;;;;;;;6.55;4.07;;;16.80;96.70;;;;;;5406828;26;19996;-72
2024/04/15 06:33:48;;;;;;;6.72;4.13;;;16.90;96.70;;;;;;5403500;26;20011;-72
2024/04/15 06:36:17;;;;;;;4.65;4.03;;;17.00;96.70;;;;;;5406679;26;20003;-72
2024/04/15 06:38:46;;;;;;;6.90;5.15;;;17.10;96.70;;;;;;5397947;26;20004;-72
2024/04/15 06:41:17;;;;;;;6.72;4.88;;;17.10;96.70;;;;;;5371219;26;20544;-72
2024/04/15 06:43:47;;;;;;;8.35;4.63;;;17.00;96.70;;;;;;5404183;26;20553;-72
2024/04/15 06:46:15;;;;;;;7.78;5.03;;;17.00;96.70;;;;;;5413422;26;20125;-72
2024/04/15 06:48:48;;;;;;;6.80;5.35;;;17.00;96.70;;;;;;5376854;26;20011;-71
2024/04/15 06:51:18;;;;;;;8.07;5.00;;;17.00;96.70;;;;;;5387501;26;20024;-73
2024/04/15 06:53:47;;;;;;;7.78;6.10;;;17.00;96.70;;;;;;5386369;26;20008;-73
2024/04/15 06:56:21;;;;;;;10.65;7.50;;;17.00;96.70;;;;;;5382806;26;20012;-73
2024/04/15 06:58:49;;;;;;;8.25;6.80;;;17.00;96.70;;;;;;5378138;26;20007;-73
2024/04/15 07:01:18;;;;;;;11.38;8.30;;;17.00;96.70;;;;;;5387270;26;20023;-71
2024/04/15 07:03:49;;;;;;;11.77;8.43;;;17.00;96.70;;;;;;5381421;26;20856;-70
2024/04/15 07:06:22;;;;;;;8.05;6.78;;;17.10;96.70;;;;;;5398755;26;20008;-70
2024/04/15 07:08:52;;;;;;;9.48;7.55;;;17.10;96.70;;;;;;5403568;26;20453;-71
2024/04/15 07:11:23;;;;;;;8.65;7.53;;;17.20;96.70;;;;;;5403321;26;20774;-71
2024/04/15 07:13:53;;;;;;;17.38;12.35;;;17.30;96.70;;;;;;5397992;26;20001;-71
2024/04/15 07:16:22;;;;;;;14.93;11.88;;;17.50;96.70;;;;;;5385323;26;19999;-71
2024/04/15 07:18:51;;;;;;;19.63;16.20;;;17.50;96.70;;;;;;5392124;26;20035;-72
2024/04/15 07:21:22;;;;;;;17.35;13.30;;;17.40;96.70;;;;;;5416785;26;20453;-71
2024/04/15 07:23:50;;;;;;;22.70;17.20;;;17.50;96.70;;;;;;5409019;26;20407;-71
2024/04/15 07:26:19;;;;;;;18.85;16.83;;;17.60;96.70;;;;;;5394784;26;20007;-72
2024/04/15 07:28:52;;;;;;;18.60;14.23;;;17.70;96.70;;;;;;5406989;26;20023;-70
2024/04/15 07:31:22;;;;;;;18.20;14.25;;;17.80;96.70;;;;;;5393095;26;20011;-71
2024/04/15 07:33:51;;;;;;;19.13;14.27;;;17.80;96.70;;;;;;5410091;26;20357;-71
2024/04/15 07:36:23;;;;;;;21.50;14.43;;;17.80;96.70;;;;;;5381057;26;19999;-71
2024/04/15 07:38:52;;;;;;;21.50;14.85;;;17.80;96.70;;;;;;5412265;26;20003;-71
2024/04/15 07:41:21;;;;;;;20.08;13.48;;;17.90;96.70;;;;;;5406629;26;19996;-71
2024/04/15 07:43:53;;;;;;;18.48;13.52;;;18.10;96.70;;;;;;5409049;26;20014;-73
2024/04/15 07:46:25;;;;;;;17.00;11.45;;;18.20;96.70;;;;;;5398259;26;20080;-75
2024/04/15 07:48:55;;;;;;;14.50;11.38;;;18.20;96.70;;;;;;5400366;26;20010;-74
2024/04/15 07:51:25;;;;;;;13.10;10.25;;;18.20;96.70;;;;;;5428732;26;20488;-74
2024/04/15 07:53:59;;;;;;;16.83;10.45;;;18.20;96.70;;;;;;5391567;26;20004;-75
2024/04/15 07:56:28;;;;;;;12.23;9.23;;;18.20;96.70;;;;;;5409603;26;20089;-75
2024/04/15 07:59:00;;;;;;;11.32;8.55;;;18.10;96.70;;;;;;5378687;26;20724;-74
2024/04/15 08:01:29;;;;;;;11.40;9.63;;;18.20;96.70;;;;;;5377603;26;20014;-73
2024/04/15 08:03:58;;;;;;;12.77;9.48;;;18.30;96.70;;;;;;5401165;26;19999;-75
2024/04/15 08:06:27;;;;;;;13.38;9.38;;;18.40;96.70;;;;;;5378376;26;19999;-76
2024/04/15 08:08:55;;;;;;;11.95;10.10;;;18.40;96.70;;;;;;5377894;26;20030;-75
2024/04/15 08:11:27;;;;;;;12.63;9.77;;;18.50;96.70;;;;;;5371387;26;20004;-75
2024/04/15 08:14:00;;;;;;;12.88;9.80;;;18.60;96.70;;;;;;5372073;26;20489;-75
2024/04/15 08:16:29;;;;;;;13.13;9.07;;;18.60;96.70;;;;;;5404986;26;19995;-77
2024/04/15 08:18:57;;;;;;;12.07;9.65;;;18.70;96.70;;;;;;5401881;26;20211;-75
2024/04/15 08:21:26;;;;;;;15.95;10.13;;;18.80;96.70;;;;;;5402099;26;20003;-76
2024/04/15 08:23:55;;;;;;;13.05;10.15;;;18.90;96.70;;;;;;5406259;26;20062;-75
2024/04/15 08:26:24;;;;;;;15.27;9.55;;;19.00;96.70;;;;;;5377981;26;20010;-76
2024/04/15 08:28:52;;;;;;;11.43;9.18;;;19.20;96.70;;;;;;5376210;26;20011;-77
2024/04/15 08:31:24;;;;;;;12.70;8.75;;;19.20;96.70;;;;;;5408180;26;20003;-76
2024/04/15 08:33:54;;;;;;;9.65;8.38;;;19.40;96.70;;;;;;5376471;26;20045;-77
2024/04/15 08:36:23;;;;;;;11.68;8.30;;;19.50;96.70;;;;;;5403504;26;19995;-76
2024/04/15 08:38:52;;;;;;;11.57;8.55;;;19.60;96.70;;;;;;5397763;26;20043;-76
2024/04/15 08:41:26;;;;;;;10.10;7.10;;;19.80;96.70;;;;;;5406659;26;20003;-75
2024/04/15 08:44:04;;;;;;;10.52;7.50;;;19.80;96.70;;;;;;5402169;26;20019;-76
2024/04/15 08:46:42;;;;;;;12.60;7.78;;;19.80;96.70;;;;;;5409166;26;20003;-76
2024/04/15 08:49:15;;;;;;;10.43;7.13;;;20.00;96.70;;;;;;5407589;26;20007;-77
2024/04/15 08:51:44;;;;;;;13.15;7.82;;;20.20;96.70;;;;;;5378936;26;20003;-77
2024/04/15 08:54:14;;;;;;;10.00;7.97;;;20.30;96.70;;;;;;5399233;26;21611;-79
2024/04/15 08:56:44;;;;;;;10.77;7.88;;;20.40;96.70;;;;;;5378365;26;20011;-78
2024/04/15 08:59:16;;;;;;;11.60;7.38;;;20.40;96.70;;;;;;5401604;26;20004;-79
2024/04/15 09:01:50;;;;;;;12.35;8.32;;;20.50;96.70;;;;;;5407613;26;20014;-78
2024/04/15 09:04:19;;;;;;;11.00;8.05;;;20.50;96.70;;;;;;5391275;26;20048;-78
2024/04/15 09:06:49;;;;;;;12.40;8.85;;;20.40;96.70;;;;;;5408055;26;20011;-76
2024/04/15 09:09:18;;;;;;;13.52;9.07;;;20.60;96.70;;;;;;5407443;26;20004;-77
2024/04/15 09:11:48;;;;;;;14.55;9.57;;;20.70;96.70;;;;;;5398027;26;20353;-78
2024/04/15 09:14:22;;;;;;;15.88;9.57;;;20.70;96.70;;;;;;5407397;26;20130;-77
2024/04/15 09:16:55;;;;;;;13.75;9.38;;;20.80;96.70;;;;;;5378865;26;20007;-77
2024/04/15 09:19:26;;;;;;;15.43;9.20;;;21.10;96.70;;;;;;5379550;26;20003;-77
2024/04/15 09:22:00;;;;;;;14.30;9.02;;;21.30;96.70;;;;;;5407831;26;20015;-77
2024/04/15 09:24:31;;;;;;;14.55;9.25;;;21.20;96.70;;;;;;5436617;26;20000;-77
2024/04/15 09:27:01;;;;;;;14.18;8.95;;;21.20;96.70;;;;;;5364959;26;20010;-76
2024/04/15 09:29:29;;;;;;;15.73;10.10;;;21.30;96.70;;;;;;5370695;26;20010;-77
2024/04/15 09:32:01;;;;;;;15.98;9.30;;;21.30;96.70;;;;;;5407276;26;19999;-76
2024/04/15 09:34:30;;;;;;;11.50;7.63;;;21.30;96.70;;;;;;5407141;26;20007;-76
2024/04/15 09:37:03;;;;;;;12.43;8.68;;;21.30;96.70;;;;;;5407314;26;20104;-76
2024/04/15 09:39:34;;;;;;;13.13;7.13;;;21.40;96.70;;;;;;5378648;26;20005;-76
2024/04/15 09:42:03;;;;;;;12.73;7.40;;;21.40;96.70;;;;;;5377575;26;20089;-74
2024/04/15 09:44:33;;;;;;;10.32;6.32;;;21.40;96.70;;;;;;5415752;26;20004;-75
2024/04/15 09:47:05;;;;;;;10.52;5.97;;;21.50;96.70;;;;;;5373039;26;20004;-76
2024/04/15 09:49:37;;;;;;;9.20;5.55;;;21.70;96.70;;;;;;5407380;26;20011;-74
2024/04/15 09:52:08;;;;;;;7.90;4.10;;;21.80;96.70;;;;;;5421807;26;20003;-75
2024/04/15 09:54:42;;;;;;;10.30;4.10;;;21.80;96.70;;;;;;5430777;26;20000;-76
2024/04/15 09:57:14;;;;;;;10.35;4.53;;;21.80;96.70;;;;;;5379640;26;20076;-77
2024/04/15 09:59:45;;;;;;;6.75;3.97;;;21.90;96.70;;;;;;5379616;26;20031;-77
2024/04/15 10:02:34;;;;;;;8.20;4.13;;;21.90;96.70;;;;;;5379281;26;20022;-76
2024/04/15 10:05:17;;;;;;;6.63;3.85;;;22.00;96.70;;;;;;5406185;26;20006;-75
2024/04/15 10:07:49;;;;;;;5.85;3.42;;;22.10;96.70;;;;;;5394197;26;19999;-76
2024/04/15 10:10:22;;;;;;;6.72;2.72;;;22.00;96.70;;;;;;5384422;26;20071;-75
2024/04/15 10:12:52;;;;;;;6.75;3.17;;;22.10;96.70;;;;;;5384591;26;20003;-75
2024/04/15 10:15:22;;;;;;;6.00;2.55;;;22.10;96.70;;;;;;5418026;26;20003;-73
2024/04/15 10:17:58;;;;;;;6.30;2.92;;;22.10;96.70;;;;;;5378401;26;20007;-76
2024/04/15 10:20:30;;;;;;;6.70;2.90;;;22.20;96.70;;;;;;5400173;26;20090;-76
2024/04/15 10:22:59;;;;;;;6.80;2.70;;;22.30;96.70;;;;;;5407947;26;20727;-75
2024/04/15 10:25:34;;;;;;;6.80;2.75;;;22.30;96.70;;;;;;5407462;26;20431;-76
2024/04/15 10:28:11;;;;;;;5.47;2.92;;;22.40;96.70;;;;;;5377591;26;20065;-76
2024/04/15 10:31:20;;;;;;;7.30;3.60;;;22.50;96.70;;;;;;5408251;26;20018;-79
2024/04/15 10:33:52;;;;;;;4.38;3.28;;;22.60;96.70;;;;;;5391820;26;20054;-79
2024/04/15 10:36:29;;;;;;;6.30;2.97;;;22.50;96.70;;;;;;5368487;26;20047;-79
2024/04/15 10:39:04;;;;;;;5.43;3.45;;;22.60;96.70;;;;;;5407227;26;20007;-76
2024/04/15 10:41:34;;;;;;;5.03;3.05;;;22.70;96.70;;;;;;5405453;26;20049;-76
2024/04/15 10:44:04;;;;;;;8.68;3.47;;;22.80;96.70;;;;;;5392295;26;20077;-77
2024/04/15 10:46:36;;;;;;;6.00;3.30;;;22.90;96.70;;;;;;5377309;26;20039;-78
2024/04/15 10:49:07;;;;;;;4.68;2.83;;;22.90;96.70;;;;;;5378804;26;20478;-79
2024/04/15 10:51:43;;;;;;;8.60;4.50;;;22.90;96.70;;;;;;5377662;26;20000;-76
2024/04/15 10:57:27;;;;;;;8.57;3.53;;;22.90;96.70;;;;;;5427179;26;19931;-76
2024/04/15 10:59:56;;;;;;;6.50;4.00;;;23.00;96.70;;;;;;5408986;26;19999;-76
2024/04/15 11:02:33;;;;;;;7.05;3.70;;;23.00;96.70;;;;;;5381710;26;20011;-77
2024/04/15 11:05:07;;;;;;;6.93;3.53;;;23.00;96.70;;;;;;5410505;26;19996;-76
2024/04/15 11:07:39;;;;;;;7.03;3.60;;;23.00;96.70;;;;;;5375120;26;20377;-76
2024/04/15 11:10:10;;;;;;;7.88;3.83;;;23.10;96.70;;;;;;5414971;26;20438;-78
2024/04/15 11:12:42;;;;;;;6.30;3.88;;;23.00;96.70;;;;;;5408941;26;20015;-79
2024/04/15 11:15:18;;;;;;;6.03;3.78;;;23.20;96.70;;;;;;5379608;26;20449;-79
2024/04/15 11:17:50;;;;;;;7.07;4.07;;;23.40;96.70;;;;;;5377408;26;20000;-78
2024/04/15 11:20:23;;;;;;;8.73;4.25;;;23.50;96.70;;;;;;5406971;26;20000;-81
2024/04/15 11:23:00;;;;;;;7.15;3.70;;;23.80;96.70;;;;;;5380717;26;19999;-76
2024/04/15 11:25:29;;;;;;;5.90;3.22;;;23.80;96.70;;;;;;5409313;26;20588;-78
2024/04/15 11:27:59;;;;;;;5.90;3.70;;;24.00;96.70;;;;;;5400464;26;20003;-78
2024/04/15 11:30:29;;;;;;;6.00;3.92;;;24.00;96.70;;;;;;5379631;26;20518;-78
2024/04/15 11:32:59;;;;;;;5.82;3.90;;;24.00;96.70;;;;;;5410942;26;20480;-78
2024/04/15 11:35:32;;;;;;;6.10;3.78;;;23.90;96.70;;;;;;5380921;26;20007;-79
2024/04/15 11:38:04;;;;;;;10.02;3.88;;;24.00;96.70;;;;;;5409029;26;20014;-78
2024/04/15 11:40:33;;;;;;;4.95;3.53;;;24.20;96.70;;;;;;5378760;26;20004;-78
2024/04/15 11:43:05;;;;;;;5.72;3.20;;;24.40;96.70;;;;;;5403534;26;20080;-78
2024/04/15 11:45:35;;;;;;;6.13;3.03;;;24.40;96.70;;;;;;5368756;26;20006;-76
2024/04/15 11:48:07;;;;;;;10.10;3.53;;;24.40;96.70;;;;;;5380266;26;20003;-79
2024/04/15 11:50:42;;;;;;;4.82;2.97;;;24.40;96.70;;;;;;5380302;26;20031;-78
2024/04/15 11:53:13;;;;;;;6.38;2.85;;;24.50;96.70;;;;;;5407456;26;20349;-80
2024/04/15 11:55:42;;;;;;;5.75;3.10;;;24.50;96.70;;;;;;5408481;26;20517;-79
2024/04/15 11:58:12;;;;;;;6.45;4.03;;;24.50;96.70;;;;;;5408902;26;20010;-80
2024/04/15 12:00:45;;;;;;;6.65;3.85;;;24.50;96.70;;;;;;5372081;26;20434;-79
2024/04/15 12:03:18;;;;;;;4.93;3.33;;;24.50;96.70;;;;;;5378656;26;20007;-79
2024/04/15 12:05:53;;;;;;;6.90;3.17;;;24.60;96.70;;;;;;5408966;26;20811;-80
2024/04/15 12:08:25;;;;;;;6.63;3.10;;;24.60;96.70;;;;;;5407975;26;20014;-79
2024/04/15 12:10:55;;;;;;;6.28;3.20;;;24.50;96.70;;;;;;5425150;26;20422;-80
2024/04/15 12:13:24;;;;;;;6.85;3.25;;;24.50;96.70;;;;;;5379498;26;20007;-79
2024/04/15 12:15:53;;;;;;;5.82;3.47;;;24.60;96.70;;;;;;5379334;26;20035;-78
2024/04/15 12:18:22;;;;;;;6.80;3.20;;;24.80;96.70;;;;;;5363071;26;20000;-80
2024/04/15 12:20:53;;;;;;;7.20;3.22;;;24.90;96.70;;;;;;5408085;26;20584;-80
2024/04/15 12:23:22;;;;;;;4.00;2.90;;;24.80;96.70;;;;;;5379533;26;20000;-78
2024/04/15 12:26:00;;;;;;;5.20;2.65;;;24.60;96.70;;;;;;5378490;26;20594;-78
2024/04/15 12:28:29;;;;;;;5.05;2.55;;;24.70;96.70;;;;;;5376650;26;20000;-80
2024/04/15 12:30:58;;;;;;;5.30;2.83;;;24.90;96.70;;;;;;5408168;26;20449;-80
2024/04/15 12:33:29;;;;;;;5.22;2.72;;;24.90;96.70;;;;;;5407540;26;20433;-78
2024/04/15 12:36:05;;;;;;;5.00;2.80;;;24.90;96.70;;;;;;5378459;26;20000;-79
2024/04/15 12:38:35;;;;;;;5.55;2.50;;;24.70;96.70;;;;;;5407365;26;20076;-79
2024/04/15 12:41:07;;;;;;;4.53;2.60;;;24.80;96.70;;;;;;5374898;26;20028;-78
2024/04/15 12:44:08;;;;;;;4.78;3.20;;;24.90;96.70;;;;;;5402513;26;20004;-80
2024/04/15 12:46:47;;;;;;;6.97;3.00;;;25.00;96.70;;;;;;5409346;26;20050;-78
2024/04/15 12:49:22;;;;;;;6.40;3.70;;;25.10;96.70;;;;;;5403836;26;20012;-79
2024/04/15 12:52:13;;;;;;;5.43;2.90;;;24.90;96.70;;;;;;5394132;26;20069;-80
2024/04/15 12:55:15;;;;;;;4.22;2.50;;;25.10;96.70;;;;;;5378713;26;20003;-79
2024/04/15 12:58:04;;;;;;;5.00;2.58;;;25.20;96.70;;;;;;5408927;26;20628;-78
2024/04/15 13:03:46;;;;;;;4.65;2.20;;;25.60;96.70;;;;;;5394226;26;20453;-77
2024/04/15 13:06:16;;;;;;;6.05;2.53;;;25.60;96.70;;;;;;5410086;26;20007;-77
2024/04/15 13:08:51;;;;;;;4.53;2.08;;;25.60;96.70;;;;;;5370533;26;20000;-78
2024/04/15 13:11:59;;;;;;;;;;;;;;;;;;;;;